Hauptseite
METAR-TAF:

METAR-TAF

Flughäfen :

Flugplatz Les Eplatures

La Chaux-de-Fonds, Schweiz

Breite: 47-05-03N, Länge: 006-47-37E, Höhe: 1027 m

Beobachtung

Neuester Wetterbericht von vor 7 Minuten, um 01:50 UTC
Wind 3 kt aus West
Temperatur 12°C
Luftfeuchtigkeit 88%
Luftdruck 1018 hPa
Sichtweite 10 km oder mehr
keine Wolken unter 1500 m und keine Kumulonimbus oder Gewitterwolken

METAR: LSGC 170150Z AUTO 26003KT CAVOK 12/10 Q1018

Zeit: 03:57 (01:57 UTC)

Prognose

Neuester Wetterbericht von vor 11 Stunden und 32 Minuten, um 14:25 UTC
Gültige Prognose vom 16 um 15 UTC bis 16 um 24 UTC
Wind 6 kt aus Ost/Nordost
Sichtweite 10 km oder mehr
keine Wolken unter 1500 m und keine Kumulonimbus oder Gewitterwolken

TAF: LSGC 161425Z 1615/1624 06006KT CAVOK

Wetterbeobachtungen und Prognosen von mehr als 4000 Flughäfen (METAR und TAF Bericht).

Die verfügbaren Stationen werden durch gelbe und rote Markierungen auf der Karte dargestellt.

Führen Sie die Maus auf sie, um den Namen der Station zu sehen.

Darauf klicken, um die Beobachtung von Wetterbeobachtungen und Prognosen zu sehen.

Um die Karte zu ändern : klicken Sie auf den grünen Tasten mit einem schwarzen Kreuz Zum Vergrößern, auf den grünen Button mit einem Gedankenstrich zu verkleinern, oder auf die grünen Pfeile für benachbarte Karten.


METAR-TAF: